Friday, July 20, 2018, 4:51 AM EDT
Back to Local

KMTN, Baltimore / Martin

Location: Middle River, MD, United States Lat: 39.333
Local Time: 4:51 AM EDT ( 8:51 GMT) Lon: -76.417
Time Zone: US/Eastern Elev: 22 ft

Show me the last for .
Show Decoded

2018-07-20 04:36 METAR KMTN 200836Z AUTO 00000KT 10SM CLR 20/19 A3012 RMK AO2 =
2018-07-20 04:15 METAR KMTN 200815Z AUTO 00000KT 10SM CLR 21/20 A3012 RMK AO2 =
2018-07-20 03:57 METAR KMTN 200757Z AUTO 00000KT 10SM CLR 21/20 A3012 RMK AO2 =
2018-07-20 03:36 METAR KMTN 200736Z AUTO 00000KT 10SM CLR 23/20 A3012 RMK AO2 =
2018-07-20 03:15 METAR KMTN 200715Z AUTO 16003KT 10SM CLR 23/20 A3012 RMK AO2 =
2018-07-20 02:57 METAR KMTN 200657Z AUTO 16004KT 10SM CLR 24/20 A3012 RMK AO2 =
2018-07-20 02:36 METAR KMTN 200636Z AUTO 15003KT 10SM SCT065 24/20 A3012 RMK AO2 =
2018-07-20 02:15 METAR KMTN 200615Z AUTO 13007KT 10SM BKN065 24/20 A3012 RMK AO2 =
2018-07-20 01:57 METAR KMTN 200557Z AUTO 14008KT 10SM OVC065 24/20 A3012 RMK AO2 =
2018-07-20 01:36 METAR KMTN 200536Z AUTO 14007KT 10SM BKN065 24/20 A3012 RMK AO2 =
2018-07-20 01:15 METAR KMTN 200515Z AUTO 12007KT 10SM SCT065 24/20 A3012 RMK AO2 =
2018-07-20 00:57 METAR KMTN 200457Z AUTO 12008KT 10SM CLR 24/20 A3012 RMK AO2 =
2018-07-20 00:36 METAR KMTN 200436Z AUTO 12008KT 10SM CLR 24/20 A3012 RMK AO2 =
2018-07-20 00:15 METAR KMTN 200415Z AUTO 13011KT 10SM CLR 24/19 A3012 RMK AO2 =
2018-07-19 23:57 METAR KMTN 200357Z AUTO 12010KT 10SM CLR 24/20 A3012 RMK AO2 =
2018-07-19 23:36 METAR KMTN 200336Z AUTO 10003KT 10SM CLR 22/20 A3011 RMK AO2 =
2018-07-19 23:15 METAR KMTN 200315Z AUTO 00000KT 10SM CLR 22/20 A3010 RMK AO2 =
2018-07-19 22:57 METAR KMTN 200257Z AUTO 00000KT 10SM CLR 23/19 A3010 RMK AO2 =
2018-07-19 22:36 METAR KMTN 200236Z AUTO 00000KT 10SM CLR 22/18 A3010 RMK AO2 =
2018-07-19 22:15 METAR KMTN 200215Z AUTO 00000KT 10SM CLR 23/18 A3009 RMK AO2 =
2018-07-19 21:45 METAR KMTN 200145Z 00000KT 10SM FEW060 FEW200 24/18 A3009 =
2018-07-19 20:45 METAR KMTN 200045Z 17004KT 10SM FEW150 SCT250 26/17 A3007 =
2018-07-19 19:45 METAR KMTN 192345Z 16003KT 10SM FEW150 SCT250 27/17 A3007 =
2018-07-19 18:45 METAR KMTN 192245Z 13005KT 10SM FEW065 SCT200 29/16 A3007 =
2018-07-19 17:54 METAR KMTN 192154Z 12005KT 10SM SCT200 29/15 A3007 =
2018-07-19 16:45 METAR KMTN 192045Z 08005KT 10SM SCT150 30/15 A3007 =
2018-07-19 15:45 METAR KMTN 191945Z 11007KT 10SM SCT080 SCT150 29/16 A3009 =
2018-07-19 14:45 METAR KMTN 191845Z 15008KT 10SM FEW080 SCT130 29/16 A3010 =
2018-07-19 13:45 METAR KMTN 191745Z 11008KT 10SM FEW080 SCT130 29/16 A3010 =
2018-07-19 12:45 METAR KMTN 191645Z 05004KT 10SM FEW070 SCT150 29/14 A3011 =
2018-07-19 11:55 METAR KMTN 191555Z 10003KT 10SM FEW180 28/15 A3012 =
2018-07-19 10:45 METAR KMTN 191445Z 03003KT 10SM FEW150 27/14 A3012 =
2018-07-19 09:50 METAR KMTN 191350Z 06003KT 10SM FEW150 26/14 A3012 =
2018-07-19 08:45 METAR KMTN 191245Z 00000KT 10SM FEW070 24/14 A3012 =
2018-07-19 07:45 METAR KMTN 191145Z 34005KT 10SM FEW070 23/14 A3010 =
2018-07-19 06:45 METAR KMTN 191045Z 33004KT 10SM FEW075 20/15 A3008 =
2018-07-19 05:45 METAR KMTN 190945Z 33003KT 10SM BKN075 18/16 A3008 =
2018-07-19 05:30 METAR KMTN 190930Z AUTO 30003KT 10SM OVC075 18/16 A3007 RMK AO2 =
2018-07-19 05:15 METAR KMTN 190915Z AUTO 28003KT 10SM BKN075 18/16 A3007 RMK AO2 =
2018-07-19 04:57 METAR KMTN 190857Z AUTO 00000KT 10SM BKN075 18/16 A3007 RMK AO2 =

Support USWX by starting your Amazon purchase here.